Time;durP1;ratioP1;P1;durP2;ratioP2;P2;SDS_P1;SDS_P2;PMS_P1;PMS_P2;Temp;Humidity;BMP_temperature;BMP_pressure;BME280_temperature;BME280_humidity;BME280_pressure;Samples;Min_cycle;Max_cycle;Signal;HPM_P1;HPM_P2
2023/01/19 00:00:42;;;;;;;16.77;2.10;;;;;;;-144.87;100.00;61487.56;4989327;28;20202;-83
2023/01/19 00:03:14;;;;;;;7.05;2.17;;;;;;;-144.87;100.00;61487.56;4989090;28;20092;-78
2023/01/19 00:05:42;;;;;;;8.93;2.30;;;;;;;-144.87;100.00;61487.56;5005494;28;20034;-78
2023/01/19 00:08:14;;;;;;;11.15;2.53;;;;;;;-144.87;100.00;61487.56;4990426;28;20089;-78
2023/01/19 00:10:43;;;;;;;9.82;2.47;;;;;;;-144.87;100.00;61487.56;5005318;28;20049;-80
2023/01/19 00:13:09;;;;;;;8.15;2.70;;;;;;;-144.87;100.00;61487.56;5005005;28;20029;-80
2023/01/19 00:15:37;;;;;;;10.57;2.70;;;;;;;-144.87;100.00;61487.56;5006602;28;20390;-80
2023/01/19 00:18:03;;;;;;;9.10;2.95;;;;;;;-144.87;100.00;61487.56;4989021;28;20064;-80
2023/01/19 00:20:34;;;;;;;8.93;3.17;;;;;;;-144.87;100.00;61487.56;5003892;28;20120;-79
2023/01/19 00:23:01;;;;;;;11.88;3.53;;;;;;;-144.87;100.00;61487.56;4987440;28;20489;-78
2023/01/19 00:25:27;;;;;;;13.65;4.25;;;;;;;-144.87;100.00;61487.56;5007567;28;20049;-78
2023/01/19 00:27:53;;;;;;;12.32;3.53;;;;;;;-144.87;100.00;61487.56;4990370;28;20502;-78
2023/01/19 00:30:20;;;;;;;18.92;4.78;;;;;;;-144.87;100.00;61487.56;5003986;28;20104;-79
2023/01/19 00:32:46;;;;;;;12.50;4.57;;;;;;;-144.87;100.00;61487.56;4990397;28;20121;-80
2023/01/19 00:35:12;;;;;;;10.77;3.83;;;;;;;-144.87;100.00;61487.56;5009023;28;20038;-78
2023/01/19 00:37:38;;;;;;;8.52;3.13;;;;;;;-144.87;100.00;61487.56;5018659;28;20054;-78
2023/01/19 00:40:06;;;;;;;12.55;3.20;;;;;;;-144.87;100.00;61487.56;5025695;28;20042;-78
2023/01/19 00:46:40;;;;;;;10.07;1.55;;;;;;;-144.87;100.00;61487.56;5012485;23;20479;-78
2023/01/19 00:49:07;;;;;;;6.07;1.27;;;;;;;-144.87;100.00;61487.56;5031311;28;20505;-77
2023/01/19 00:51:33;;;;;;;3.95;1.23;;;;;;;-144.87;100.00;61487.56;5046523;28;20038;-78
2023/01/19 00:54:03;;;;;;;4.20;0.82;;;;;;;-144.87;100.00;61487.56;5032572;28;20030;-77
2023/01/19 00:56:30;;;;;;;1.33;1.00;;;;;;;-144.87;100.00;61487.56;5025692;28;20092;-77
2023/01/19 00:58:57;;;;;;;6.30;1.15;;;;;;;-144.87;100.00;61487.56;5023130;28;20046;-77
2023/01/19 01:01:23;;;;;;;4.93;0.82;;;;;;;-144.87;100.00;61487.56;5023119;28;20046;-78
2023/01/19 01:03:49;;;;;;;3.05;1.00;;;;;;;-144.87;100.00;61487.56;5020386;28;20053;-77
2023/01/19 01:06:15;;;;;;;6.10;1.00;;;;;;;-144.87;100.00;61487.56;5022437;28;20115;-77
2023/01/19 01:08:42;;;;;;;7.68;0.90;;;;;;;-144.87;100.00;61487.56;5005879;28;20396;-79
2023/01/19 01:11:08;;;;;;;8.15;1.00;;;;;;;-144.87;100.00;61487.56;5005882;28;20583;-80
2023/01/19 01:13:34;;;;;;;11.40;1.35;;;;;;;-144.87;100.00;61487.56;5038352;28;20038;-80
2023/01/19 01:16:00;;;;;;;6.55;1.00;;;;;;;-144.87;100.00;61487.56;5005347;28;20042;-80
2023/01/19 01:18:28;;;;;;;6.72;1.33;;;;;;;-144.87;100.00;61487.56;5021088;28;20046;-80
2023/01/19 01:21:04;;;;;;;7.40;1.05;;;;;;;-144.87;100.00;61487.56;5038818;28;20115;-79
2023/01/19 01:23:30;;;;;;;7.70;1.20;;;;;;;-144.87;100.00;61487.56;5020375;28;20037;-80
2023/01/19 01:25:56;;;;;;;12.27;1.15;;;;;;;-144.87;100.00;61487.56;5021601;28;20389;-80
2023/01/19 01:28:23;;;;;;;9.20;1.73;;;;;;;-144.87;100.00;61487.56;5037568;28;20057;-80
2023/01/19 01:30:54;;;;;;;13.35;1.38;;;;;;;-144.87;100.00;61487.56;5038386;28;20133;-78
2023/01/19 01:33:21;;;;;;;4.88;0.93;;;;;;;-144.87;100.00;61487.56;5038001;28;20069;-78
2023/01/19 01:35:48;;;;;;;9.02;1.23;;;;;;;-144.87;100.00;61487.56;5037601;28;20053;-78
2023/01/19 01:38:15;;;;;;;8.07;1.15;;;;;;;-144.87;100.00;61487.56;5039028;28;20066;-78
2023/01/19 01:40:42;;;;;;;12.90;1.50;;;;;;;-144.87;100.00;61487.56;5012316;28;20045;-79
2023/01/19 01:43:14;;;;;;;13.95;1.63;;;;;;;-144.87;100.00;61487.56;5023217;28;20088;-78
2023/01/19 01:45:41;;;;;;;9.52;1.50;;;;;;;-144.87;100.00;61487.56;5022965;28;20065;-80
2023/01/19 01:48:15;;;;;;;10.23;1.20;;;;;;;-144.87;100.00;61487.56;5007153;28;20050;-78
2023/01/19 01:53:33;;;;;;;14.23;2.67;;;;;;;-144.87;100.00;61487.56;5009952;28;20026;-78
2023/01/19 01:55:59;;;;;;;7.13;1.65;;;;;;;-144.87;100.00;61487.56;5011577;28;20034;-78
2023/01/19 01:58:26;;;;;;;8.77;1.70;;;;;;;-144.87;100.00;61487.56;5044529;28;20125;-80
2023/01/19 02:03:37;;;;;;;9.43;1.42;;;;;;;-144.87;100.00;61487.56;5039540;28;20159;-80
2023/01/19 02:06:06;;;;;;;4.40;1.25;;;;;;;-144.87;100.00;61487.56;5027657;28;20072;-80
2023/01/19 02:14:18;;;;;;;7.72;1.25;;;;;;;-144.87;100.00;61487.56;5039808;28;20072;-79
2023/01/19 02:16:45;;;;;;;9.45;1.23;;;;;;;-144.87;100.00;61487.56;5042416;28;20416;-79
2023/01/19 02:19:20;;;;;;;13.88;2.72;;;;;;;-144.87;100.00;61487.56;5027229;28;20038;-78
2023/01/19 02:22:01;;;;;;;6.20;1.30;;;;;;;-144.87;100.00;61487.56;5008639;28;20041;-77
2023/01/19 02:24:28;;;;;;;6.78;1.20;;;;;;;-144.87;100.00;61487.56;5044017;28;20445;-78
2023/01/19 02:26:55;;;;;;;9.30;1.95;;;;;;;-144.87;100.00;61487.56;5039015;28;20031;-77
2023/01/19 02:29:24;;;;;;;8.18;1.48;;;;;;;-144.87;100.00;61487.56;5000437;28;20479;-78
2023/01/19 02:31:51;;;;;;;10.55;1.95;;;;;;;-144.87;100.00;61487.56;5026386;28;20715;-79
2023/01/19 02:34:19;;;;;;;6.18;1.35;;;;;;;-144.87;100.00;61487.56;5026940;28;20407;-79
2023/01/19 02:36:51;;;;;;;10.98;2.15;;;;;;;-144.87;100.00;61487.56;5042578;28;20556;-79
2023/01/19 02:39:19;;;;;;;10.98;1.50;;;;;;;-144.87;100.00;61487.56;5011807;28;20131;-78
2023/01/19 02:41:52;;;;;;;13.57;2.03;;;;;;;-144.87;100.00;61487.56;5043186;28;20171;-78
2023/01/19 02:44:19;;;;;;;4.40;1.30;;;;;;;-144.87;100.00;61487.56;5026506;28;20483;-78
2023/01/19 02:46:46;;;;;;;9.15;1.88;;;;;;;-144.87;100.00;61487.56;5008404;28;20042;-78
2023/01/19 02:49:12;;;;;;;7.03;1.27;;;;;;;-144.87;100.00;61487.56;5019363;28;20097;-78
2023/01/19 02:51:39;;;;;;;7.38;1.65;;;;;;;-144.87;100.00;61487.56;5031793;28;20092;-77
2023/01/19 02:54:17;;;;;;;9.05;1.17;;;;;;;-144.87;100.00;61487.56;5026046;28;20141;-77
2023/01/19 02:56:51;;;;;;;3.75;0.85;;;;;;;-144.87;100.00;61487.56;5040315;28;20081;-80
2023/01/19 02:59:37;;;;;;;4.13;1.00;;;;;;;-144.87;100.00;61487.56;5042806;28;20480;-77
2023/01/19 03:02:33;;;;;;;10.18;1.00;;;;;;;-144.87;100.00;61487.56;5039783;28;20550;-78
2023/01/19 03:05:05;;;;;;;3.33;1.10;;;;;;;-144.87;100.00;61487.56;4992667;28;20046;-78
2023/01/19 03:07:38;;;;;;;8.77;1.27;;;;;;;-144.87;100.00;61487.56;5045175;28;20049;-76
2023/01/19 03:10:20;;;;;;;4.03;1.35;;;;;;;-144.87;100.00;61487.56;5029680;28;20048;-79
2023/01/19 03:13:11;;;;;;;5.72;1.25;;;;;;;-144.87;100.00;61487.56;5058081;28;20399;-79
2023/01/19 03:15:48;;;;;;;;;;;;;;;-144.87;100.00;61487.56;4997238;28;20042;-79
2023/01/19 03:18:18;;;;;;;8.77;1.30;;;;;;;-144.87;100.00;61487.56;5029161;28;20263;-78
2023/01/19 03:20:45;;;;;;;8.00;2.15;;;;;;;-144.87;100.00;61487.56;5037864;28;20514;-79
2023/01/19 03:23:12;;;;;;;6.78;1.73;;;;;;;-144.87;100.00;61487.56;5004482;28;20065;-79
2023/01/19 03:25:42;;;;;;;9.02;1.92;;;;;;;-144.87;100.00;61487.56;5034292;28;20590;-78
2023/01/19 03:28:08;;;;;;;12.43;2.42;;;;;;;-144.87;100.00;61487.56;5050668;28;20049;-78
2023/01/19 03:30:41;;;;;;;12.70;2.10;;;;;;;-144.87;100.00;61487.56;5044993;28;20030;-79
2023/01/19 03:33:29;;;;;;;12.77;1.92;;;;;;;-144.87;100.00;61487.56;5028831;28;20041;-78
2023/01/19 03:36:04;;;;;;;16.60;1.70;;;;;;;-144.87;100.00;61487.56;5043030;28;20037;-78
2023/01/19 03:38:34;;;;;;;13.40;1.52;;;;;;;-144.87;100.00;61487.56;5041001;28;20030;-78
2023/01/19 03:41:04;;;;;;;16.15;1.88;;;;;;;-144.87;100.00;61487.56;5043487;28;20087;-78
2023/01/19 03:43:31;;;;;;;10.00;1.60;;;;;;;-144.87;100.00;61487.56;5022655;28;20030;-79
2023/01/19 03:45:58;;;;;;;12.65;1.40;;;;;;;-144.87;100.00;61487.56;5041325;28;20104;-79
2023/01/19 03:48:25;;;;;;;8.80;1.40;;;;;;;-144.87;100.00;61487.56;5008622;28;20046;-79
2023/01/19 03:50:52;;;;;;;9.70;1.27;;;;;;;-144.87;100.00;61487.56;5031102;28;20405;-78
2023/01/19 03:53:24;;;;;;;5.22;1.40;;;;;;;-144.87;100.00;61487.56;5011356;28;20042;-79
2023/01/19 03:55:53;;;;;;;11.85;1.60;;;;;;;-144.87;100.00;61487.56;5018959;28;20048;-79
2023/01/19 03:58:20;;;;;;;4.07;1.20;;;;;;;-144.87;100.00;61487.56;5023131;28;20069;-78
2023/01/19 04:00:47;;;;;;;7.00;1.50;;;;;;;-144.87;100.00;61487.56;5009557;28;20092;-78
2023/01/19 04:03:15;;;;;;;6.25;1.17;;;;;;;-144.87;100.00;61487.56;5008477;28;20354;-77
2023/01/19 04:05:42;;;;;;;6.68;0.90;;;;;;;-144.87;100.00;61487.56;5041225;28;20026;-78
2023/01/19 04:08:09;;;;;;;7.32;1.02;;;;;;;-144.87;100.00;61487.56;5008113;28;20104;-77
2023/01/19 04:10:35;;;;;;;6.60;1.20;;;;;;;-144.87;100.00;61487.56;5041988;28;20037;-78
2023/01/19 04:13:02;;;;;;;9.73;1.52;;;;;;;-144.87;100.00;61487.56;5008831;28;20041;-78
2023/01/19 04:15:29;;;;;;;7.93;1.92;;;;;;;-144.87;100.00;61487.56;5001213;28;20042;-78
2023/01/19 04:17:59;;;;;;;6.95;1.95;;;;;;;-144.87;100.00;61487.56;5007995;28;20038;-78
2023/01/19 04:20:27;;;;;;;11.35;1.50;;;;;;;-144.87;100.00;61487.56;5021414;28;20045;-78
2023/01/19 04:22:54;;;;;;;9.88;1.10;;;;;;;-144.87;100.00;61487.56;5005653;28;20034;-78
2023/01/19 04:25:21;;;;;;;13.27;2.33;;;;;;;-144.87;100.00;61487.56;5023062;28;20022;-80
2023/01/19 04:27:52;;;;;;;8.98;1.65;;;;;;;-144.87;100.00;61487.56;5011133;28;20447;-77
2023/01/19 04:30:18;;;;;;;12.65;1.92;;;;;;;-144.87;100.00;61487.56;5015447;28;20064;-78
2023/01/19 04:32:44;;;;;;;17.27;3.10;;;;;;;-144.87;100.00;61487.56;5008662;28;20046;-78
2023/01/19 04:35:11;;;;;;;13.30;1.90;;;;;;;-144.87;100.00;61487.56;5008064;28;20695;-79
2023/01/19 04:37:37;;;;;;;17.67;1.80;;;;;;;-144.87;100.00;61487.56;5008056;28;20038;-78
2023/01/19 04:40:03;;;;;;;9.73;1.55;;;;;;;-144.87;100.00;61487.56;5038452;28;20049;-78
2023/01/19 04:42:30;;;;;;;9.30;1.58;;;;;;;-144.87;100.00;61487.56;5038100;28;20167;-78
2023/01/19 04:44:56;;;;;;;15.57;2.00;;;;;;;-144.87;100.00;61487.56;5003963;28;20362;-80
2023/01/19 04:47:22;;;;;;;12.20;1.67;;;;;;;-144.87;100.00;61487.56;5027138;28;20054;-80
2023/01/19 04:49:48;;;;;;;20.27;2.83;;;;;;;-144.87;100.00;61487.56;5016276;28;20125;-77
2023/01/19 04:52:14;;;;;;;20.33;2.40;;;;;;;-144.87;100.00;61487.56;5023110;28;20163;-79
2023/01/19 04:54:41;;;;;;;21.40;2.20;;;;;;;-144.87;100.00;61487.56;5022300;28;20034;-77
2023/01/19 04:57:07;;;;;;;14.50;2.38;;;;;;;-144.87;100.00;61487.56;5005994;28;20034;-78
2023/01/19 04:59:33;;;;;;;13.05;2.70;;;;;;;-144.87;100.00;61487.56;5036734;28;20068;-78
2023/01/19 05:01:59;;;;;;;15.68;3.03;;;;;;;-144.87;100.00;61487.56;5008194;28;20042;-78
2023/01/19 05:04:26;;;;;;;24.80;2.88;;;;;;;-144.87;100.00;61487.56;5041189;28;20045;-81
2023/01/19 05:06:53;;;;;;;23.90;3.38;;;;;;;-144.87;100.00;61487.56;5040719;28;20404;-78
2023/01/19 05:09:19;;;;;;;29.70;4.03;;;;;;;-144.87;100.00;61487.56;5040217;28;20465;-78
2023/01/19 05:11:45;;;;;;;33.50;3.22;;;;;;;-144.87;100.00;61487.56;5007527;28;20042;-80
2023/01/19 05:14:12;;;;;;;17.83;2.25;;;;;;;-144.87;100.00;61487.56;5009863;28;20105;-78
2023/01/19 05:16:38;;;;;;;25.40;3.38;;;;;;;-144.87;100.00;61487.56;5007726;28;20080;-78
2023/01/19 05:19:04;;;;;;;20.48;2.50;;;;;;;-144.87;100.00;61487.56;5007958;28;20431;-80
2023/01/19 05:21:31;;;;;;;27.17;3.17;;;;;;;-144.87;100.00;61487.56;5012467;28;20381;-78
2023/01/19 05:23:57;;;;;;;31.45;3.10;;;;;;;-144.87;100.00;61487.56;5005656;28;20054;-78
2023/01/19 05:26:24;;;;;;;34.90;3.15;;;;;;;-144.87;100.00;61487.56;5007453;28;20369;-77
2023/01/19 05:28:50;;;;;;;22.27;2.78;;;;;;;-144.87;100.00;61487.56;5044864;28;20409;-78
2023/01/19 05:31:17;;;;;;;29.02;2.70;;;;;;;-144.87;100.00;61487.56;5028261;28;20440;-78
2023/01/19 05:33:43;;;;;;;16.65;2.70;;;;;;;-144.87;100.00;61487.56;5028694;28;20044;-78
2023/01/19 05:36:09;;;;;;;25.35;2.20;;;;;;;-144.87;100.00;61487.56;5023591;28;20481;-78
2023/01/19 05:38:36;;;;;;;21.27;2.92;;;;;;;-144.87;100.00;61487.56;5032362;28;20443;-78
2023/01/19 05:41:02;;;;;;;23.70;2.63;;;;;;;-144.87;100.00;61487.56;5011276;28;20029;-78
2023/01/19 05:43:28;;;;;;;28.38;4.38;;;;;;;-144.87;100.00;61487.56;5013135;28;20183;-78
2023/01/19 05:45:55;;;;;;;24.60;3.50;;;;;;;-144.87;100.00;61487.56;5012640;28;20123;-78
2023/01/19 05:48:21;;;;;;;23.67;3.47;;;;;;;-144.87;100.00;61487.56;5007299;28;20429;-78
2023/01/19 05:50:48;;;;;;;31.98;3.35;;;;;;;-144.87;100.00;61487.56;5038015;28;20590;-78
2023/01/19 05:53:15;;;;;;;19.25;2.85;;;;;;;-144.87;100.00;61487.56;5034379;28;20045;-79
2023/01/19 05:55:41;;;;;;;17.33;2.50;;;;;;;-144.87;100.00;61487.56;5027436;28;20048;-80
2023/01/19 05:58:08;;;;;;;31.92;4.22;;;;;;;-144.87;100.00;61487.56;5045872;28;20592;-80
2023/01/19 06:00:34;;;;;;;23.83;2.97;;;;;;;-144.87;100.00;61487.56;5020779;28;20045;-80
2023/01/19 06:03:00;;;;;;;19.25;2.55;;;;;;;-144.87;100.00;61487.56;5017582;28;20034;-80
2023/01/19 06:05:27;;;;;;;36.75;3.35;;;;;;;-144.87;100.00;61487.56;5045303;28;20065;-79
2023/01/19 06:07:56;;;;;;;19.70;2.58;;;;;;;-144.87;100.00;61487.56;5007523;28;20038;-80
2023/01/19 06:10:22;;;;;;;28.00;3.38;;;;;;;-144.87;100.00;61487.56;5014662;28;20403;-80
2023/01/19 06:12:48;;;;;;;27.80;3.53;;;;;;;-144.87;100.00;61487.56;5020265;28;20038;-80
2023/01/19 06:15:15;;;;;;;25.00;5.30;;;;;;;-144.87;100.00;61487.56;5007222;28;20037;-80
2023/01/19 06:17:41;;;;;;;24.48;3.22;;;;;;;-144.87;100.00;61487.56;5038536;28;20092;-80
2023/01/19 06:20:08;;;;;;;28.08;3.78;;;;;;;-144.87;100.00;61487.56;5005664;28;20044;-80
2023/01/19 06:22:35;;;;;;;22.67;2.80;;;;;;;-144.87;100.00;61487.56;5005983;28;20034;-80
2023/01/19 06:25:01;;;;;;;26.25;4.20;;;;;;;-144.87;100.00;61487.56;5021702;28;20038;-79
2023/01/19 06:27:28;;;;;;;32.90;4.15;;;;;;;-144.87;100.00;61487.56;5007583;28;20511;-78
2023/01/19 06:29:54;;;;;;;35.13;3.53;;;;;;;-144.87;100.00;61487.56;5006299;28;20512;-78
2023/01/19 06:32:20;;;;;;;39.55;3.63;;;;;;;-144.87;100.00;61487.56;5002862;28;20037;-78
2023/01/19 06:34:46;;;;;;;38.13;3.65;;;;;;;-144.87;100.00;61487.56;5009193;28;20144;-78
2023/01/19 06:37:15;;;;;;;36.80;3.42;;;;;;;-144.87;100.00;61487.56;5038380;28;20125;-80
2023/01/19 06:39:44;;;;;;;38.03;4.47;;;;;;;-144.87;100.00;61487.56;5040538;28;20045;-77
2023/01/19 06:42:10;;;;;;;50.60;4.97;;;;;;;-144.87;100.00;61487.56;5006831;28;20034;-78
2023/01/19 06:44:36;;;;;;;25.05;3.20;;;;;;;-144.87;100.00;61487.56;5021329;28;20026;-78
2023/01/19 06:47:02;;;;;;;36.30;4.15;;;;;;;-144.87;100.00;61487.56;5041766;28;20026;-80
2023/01/19 06:49:29;;;;;;;35.88;3.95;;;;;;;-144.87;100.00;61487.56;5007110;28;20168;-77
2023/01/19 06:51:55;;;;;;;46.83;5.63;;;;;;;-144.87;100.00;61487.56;5026162;28;20061;-78
2023/01/19 06:54:21;;;;;;;36.45;3.05;;;;;;;-144.87;100.00;61487.56;5039552;28;20078;-80
2023/01/19 06:56:47;;;;;;;22.38;3.38;;;;;;;-144.87;100.00;61487.56;5005952;28;20133;-79
2023/01/19 06:59:14;;;;;;;43.50;3.38;;;;;;;-144.87;100.00;61487.56;5038268;28;20257;-79
2023/01/19 07:01:40;;;;;;;39.92;4.78;;;;;;;-144.87;100.00;61487.56;5022889;28;20120;-78
2023/01/19 07:04:06;;;;;;;33.53;3.45;;;;;;;-144.87;100.00;61487.56;5009854;28;20049;-80
2023/01/19 07:06:32;;;;;;;33.15;3.90;;;;;;;-144.87;100.00;61487.56;5038362;28;20378;-80
2023/01/19 07:08:59;;;;;;;31.88;3.65;;;;;;;-144.87;100.00;61487.56;5016581;28;20049;-80
2023/01/19 07:11:25;;;;;;;32.83;3.60;;;;;;;-144.87;100.00;61487.56;5004230;28;20490;-80
2023/01/19 07:13:54;;;;;;;29.42;4.50;;;;;;;-144.87;100.00;61487.56;5006102;28;20439;-79
2023/01/19 07:16:20;;;;;;;35.50;5.25;;;;;;;-144.87;100.00;61487.56;5019461;28;20033;-78
2023/01/19 07:18:48;;;;;;;33.95;4.00;;;;;;;-144.87;100.00;61487.56;5006547;28;20129;-81
2023/01/19 07:21:15;;;;;;;27.23;3.90;;;;;;;-144.87;100.00;61487.56;5008020;28;20389;-80
2023/01/19 07:23:42;;;;;;;35.10;3.28;;;;;;;-144.87;100.00;61487.56;5009648;28;20144;-79
2023/01/19 07:26:09;;;;;;;38.17;6.18;;;;;;;-144.87;100.00;61487.56;5010505;28;20322;-79
2023/01/19 07:28:36;;;;;;;35.88;4.60;;;;;;;-144.87;100.00;61487.56;5034761;28;20399;-78
2023/01/19 07:31:02;;;;;;;31.83;3.75;;;;;;;-144.87;100.00;61487.56;5008800;28;20044;-78
2023/01/19 07:33:28;;;;;;;30.38;3.70;;;;;;;-144.87;100.00;61487.56;5010634;28;20100;-79
2023/01/19 07:35:55;;;;;;;33.80;3.97;;;;;;;-144.87;100.00;61487.56;5026257;28;20069;-79
2023/01/19 07:38:21;;;;;;;41.45;3.30;;;;;;;-144.87;100.00;61487.56;5004211;28;20042;-80
2023/01/19 07:40:48;;;;;;;43.75;3.80;;;;;;;-144.87;100.00;61487.56;5011241;28;20079;-78
2023/01/19 07:43:14;;;;;;;42.10;5.10;;;;;;;-144.87;100.00;61487.56;5025018;28;20034;-81
2023/01/19 07:45:41;;;;;;;30.08;3.78;;;;;;;-144.87;100.00;61487.56;5039316;28;20131;-79
2023/01/19 07:48:07;;;;;;;31.70;5.40;;;;;;;-144.87;100.00;61487.56;5025500;28;20470;-80
2023/01/19 07:50:34;;;;;;;37.35;5.82;;;;;;;-144.87;100.00;61487.56;5014440;28;20485;-79
2023/01/19 07:53:08;;;;;;;39.08;4.60;;;;;;;-144.87;100.00;61487.56;5015358;28;20073;-81
2023/01/19 07:55:34;;;;;;;43.30;4.97;;;;;;;-144.87;100.00;61487.56;5039920;28;20038;-79
2023/01/19 07:58:05;;;;;;;35.35;4.95;;;;;;;-144.87;100.00;61487.56;5026459;28;20034;-79
2023/01/19 08:00:32;;;;;;;17.90;3.08;;;;;;;-144.87;100.00;61487.56;5009796;28;20045;-78
2023/01/19 08:02:59;;;;;;;32.63;4.78;;;;;;;-144.87;100.00;61487.56;5008454;28;20041;-78
2023/01/19 08:05:28;;;;;;;32.05;4.35;;;;;;;-144.87;100.00;61487.56;5033008;28;20036;-81
2023/01/19 08:07:56;;;;;;;38.65;4.80;;;;;;;-144.87;100.00;61487.56;5038462;28;20026;-78
2023/01/19 08:10:25;;;;;;;30.75;4.18;;;;;;;-144.87;100.00;61487.56;5037863;28;20045;-79
2023/01/19 08:12:55;;;;;;;31.52;4.90;;;;;;;-144.87;100.00;61487.56;5004570;28;20026;-79
2023/01/19 08:15:23;;;;;;;26.05;3.42;;;;;;;-144.87;100.00;61487.56;5034831;28;20491;-81
2023/01/19 08:17:57;;;;;;;39.60;5.93;;;;;;;-144.87;100.00;61487.56;5005113;28;20466;-79
2023/01/19 08:20:24;;;;;;;35.90;3.88;;;;;;;-144.87;100.00;61487.56;5036544;28;20037;-79
2023/01/19 08:22:58;;;;;;;24.13;3.40;;;;;;;-144.87;100.00;61487.56;5001232;28;20034;-78
2023/01/19 08:25:45;;;;;;;32.25;3.53;;;;;;;-144.87;100.00;61487.56;5008275;28;20030;-78
2023/01/19 08:28:13;;;;;;;24.52;3.60;;;;;;;-144.87;100.00;61487.56;5009682;28;20084;-77
2023/01/19 08:30:42;;;;;;;32.90;5.38;;;;;;;-144.87;100.00;61487.56;5052162;28;20558;-76
2023/01/19 08:33:12;;;;;;;24.15;3.55;;;;;;;-144.87;100.00;61487.56;5018539;28;20049;-76
2023/01/19 08:35:40;;;;;;;21.52;2.50;;;;;;;-144.87;100.00;61487.56;5047876;28;20455;-77
2023/01/19 08:38:07;;;;;;;26.48;3.40;;;;;;;-144.87;100.00;61487.56;5031217;28;20050;-77
2023/01/19 08:40:38;;;;;;;21.50;2.88;;;;;;;-144.87;100.00;61487.56;5041480;28;20037;-77
2023/01/19 08:43:24;;;;;;;20.77;3.00;;;;;;;-144.87;100.00;61487.56;5036951;28;20040;-77
2023/01/19 08:45:51;;;;;;;16.63;2.85;;;;;;;-144.87;100.00;61487.56;5005686;28;20125;-77
2023/01/19 08:48:21;;;;;;;15.85;3.55;;;;;;;-144.87;100.00;61487.56;5017318;28;20112;-77
2023/01/19 08:50:48;;;;;;;14.75;2.35;;;;;;;-144.87;100.00;61487.56;5033450;28;20041;-79
2023/01/19 08:53:15;;;;;;;18.02;3.33;;;;;;;-144.87;100.00;61487.56;5007748;28;20458;-80
2023/01/19 08:55:41;;;;;;;15.57;2.88;;;;;;;-144.87;100.00;61487.56;5040240;28;20041;-79
2023/01/19 08:58:08;;;;;;;15.70;2.60;;;;;;;-144.87;100.00;61487.56;5038932;28;20460;-79
2023/01/19 09:00:39;;;;;;;13.18;2.85;;;;;;;-144.87;100.00;61487.56;5039363;28;20045;-78
2023/01/19 09:03:07;;;;;;;21.02;4.00;;;;;;;-144.87;100.00;61487.56;5019611;28;20193;-78
2023/01/19 09:05:36;;;;;;;20.77;2.63;;;;;;;-144.87;100.00;61487.56;5007518;28;20361;-79
2023/01/19 09:08:04;;;;;;;51.42;5.05;;;;;;;-144.87;100.00;61487.56;5025780;28;20037;-80
2023/01/19 09:10:34;;;;;;;20.50;3.25;;;;;;;-144.87;100.00;61487.56;5033621;28;20042;-77
2023/01/19 09:13:05;;;;;;;18.27;3.08;;;;;;;-144.87;100.00;61487.56;5020437;28;20026;-81
2023/01/19 09:15:36;;;;;;;8.60;2.03;;;;;;;-144.87;100.00;61487.56;5039909;28;20456;-77
2023/01/19 09:18:04;;;;;;;18.05;4.03;;;;;;;-144.87;100.00;61487.56;5039219;28;20046;-78
2023/01/19 09:20:32;;;;;;;12.70;2.35;;;;;;;-144.87;100.00;61487.56;5007010;28;20381;-78
2023/01/19 09:22:59;;;;;;;21.27;3.13;;;;;;;-144.87;100.00;61487.56;5008421;28;20064;-78
2023/01/19 09:25:25;;;;;;;15.10;2.83;;;;;;;-144.87;100.00;61487.56;5022729;28;20512;-77
2023/01/19 09:27:52;;;;;;;25.48;4.00;;;;;;;-144.87;100.00;61487.56;5039044;28;20056;-79
2023/01/19 09:30:18;;;;;;;19.92;3.05;;;;;;;-144.87;100.00;61487.56;5020632;28;20042;-77
2023/01/19 09:32:45;;;;;;;18.83;2.25;;;;;;;-144.87;100.00;61487.56;5022862;28;20053;-77
2023/01/19 09:35:12;;;;;;;18.38;3.08;;;;;;;-144.87;100.00;61487.56;5037550;28;20390;-79
2023/01/19 09:37:38;;;;;;;14.70;3.08;;;;;;;-144.87;100.00;61487.56;5022849;28;20033;-79
2023/01/19 09:40:05;;;;;;;18.10;2.80;;;;;;;-144.87;100.00;61487.56;5040405;28;20448;-80
2023/01/19 09:42:42;;;;;;;12.48;3.08;;;;;;;-144.87;100.00;61487.56;5039427;28;20041;-78
2023/01/19 09:45:26;;;;;;;19.83;3.47;;;;;;;-144.87;100.00;61487.56;5022790;28;20378;-77
2023/01/19 09:47:53;;;;;;;23.42;2.55;;;;;;;-144.87;100.00;61487.56;5006733;28;20054;-77
2023/01/19 09:50:34;;;;;;;17.13;2.55;;;;;;;-144.87;100.00;61487.56;5034962;28;20048;-77
2023/01/19 09:53:31;;;;;;;17.83;2.90;;;;;;;-144.87;100.00;61487.56;5030822;28;20034;-77
2023/01/19 09:55:58;;;;;;;20.48;2.72;;;;;;;-144.87;100.00;61487.56;4998045;28;20372;-79
2023/01/19 09:58:24;;;;;;;16.45;3.55;;;;;;;-144.87;100.00;61487.56;5009810;28;20106;-77
2023/01/19 10:00:57;;;;;;;14.38;3.45;;;;;;;-144.87;100.00;61487.56;5018162;28;20108;-78
2023/01/19 10:03:23;;;;;;;15.05;2.53;;;;;;;-144.87;100.00;61487.56;5035994;28;20550;-78
2023/01/19 10:06:02;;;;;;;20.55;3.17;;;;;;;-144.87;100.00;61487.56;4995339;28;20042;-76
2023/01/19 10:08:46;;;;;;;14.20;2.33;;;;;;;-144.87;100.00;61487.56;5033850;28;20033;-77
2023/01/19 10:11:41;;;;;;;16.70;3.08;;;;;;;-144.87;100.00;61487.56;5016427;28;20038;-77
2023/01/19 10:14:19;;;;;;;27.77;2.70;;;;;;;-144.87;100.00;61487.56;4998161;28;20062;-76
2023/01/19 10:16:59;;;;;;;13.23;2.17;;;;;;;-144.87;100.00;61487.56;5024941;28;20041;-77
2023/01/19 10:19:31;;;;;;;15.50;2.35;;;;;;;-144.87;100.00;61487.56;5046663;28;20033;-76
2023/01/19 10:21:59;;;;;;;12.68;2.50;;;;;;;-144.87;100.00;61487.56;5005584;28;20095;-77
2023/01/19 10:24:35;;;;;;;16.90;3.35;;;;;;;-144.87;100.00;61487.56;5006602;28;20026;-76
2023/01/19 10:27:01;;;;;;;20.95;3.80;;;;;;;-144.87;100.00;61487.56;5027180;28;20032;-77
2023/01/19 10:29:37;;;;;;;12.32;2.70;;;;;;;-144.87;100.00;61487.56;5008395;28;20256;-77
2023/01/19 10:32:13;;;;;;;11.80;2.30;;;;;;;-144.87;100.00;61487.56;5025371;28;20033;-76
2023/01/19 10:34:40;;;;;;;16.42;3.42;;;;;;;-144.87;100.00;61487.56;5025079;28;20132;-76
2023/01/19 10:37:29;;;;;;;13.50;2.05;;;;;;;-144.87;100.00;61487.56;5011870;28;20081;-77
2023/01/19 10:40:06;;;;;;;11.55;2.10;;;;;;;-144.87;100.00;61487.56;5038222;28;20396;-76
2023/01/19 10:42:33;;;;;;;15.80;2.20;;;;;;;-144.87;100.00;61487.56;5011594;28;20056;-76
2023/01/19 10:44:59;;;;;;;13.43;2.47;;;;;;;-144.87;100.00;61487.56;5028534;28;20026;-76
2023/01/19 10:47:36;;;;;;;12.70;1.92;;;;;;;-144.87;100.00;61487.56;5010462;28;20523;-77
2023/01/19 10:50:29;;;;;;;8.20;1.73;;;;;;;-144.87;100.00;61487.56;5025474;28;20424;-77
2023/01/19 10:52:57;;;;;;;14.80;2.33;;;;;;;-144.87;100.00;61487.56;5012785;28;20554;-77
2023/01/19 10:55:29;;;;;;;13.98;2.40;;;;;;;-144.87;100.00;61487.56;5026295;28;20390;-75
2023/01/19 10:57:57;;;;;;;12.68;1.90;;;;;;;-144.87;100.00;61487.56;5010069;28;20045;-77
2023/01/19 11:00:29;;;;;;;12.35;2.10;;;;;;;-144.87;100.00;61487.56;5042936;28;20443;-77
2023/01/19 11:02:55;;;;;;;17.48;2.55;;;;;;;-144.87;100.00;61487.56;5041809;28;20026;-77
2023/01/19 11:05:25;;;;;;;12.18;1.88;;;;;;;-144.87;100.00;61487.56;5043047;28;20121;-77
2023/01/19 11:07:51;;;;;;;7.90;2.90;;;;;;;-144.87;100.00;61487.56;5022559;28;20553;-77
2023/01/19 11:10:21;;;;;;;11.70;2.70;;;;;;;-144.87;100.00;61487.56;5028328;28;20241;-77
2023/01/19 11:12:57;;;;;;;9.20;2.03;;;;;;;-144.87;100.00;61487.56;5023343;28;20037;-76
2023/01/19 11:15:30;;;;;;;13.02;2.00;;;;;;;-144.87;100.00;61487.56;5020431;28;20044;-76
2023/01/19 11:17:57;;;;;;;13.30;1.95;;;;;;;-144.87;100.00;61487.56;5053330;28;20045;-77
2023/01/19 11:20:26;;;;;;;8.25;1.88;;;;;;;-144.87;100.00;61487.56;5012794;28;20057;-77
2023/01/19 11:23:20;;;;;;;15.75;1.85;;;;;;;-144.87;100.00;61487.56;5032325;28;20054;-77
2023/01/19 11:25:49;;;;;;;7.00;1.55;;;;;;;-144.87;100.00;61487.56;4995982;28;20050;-77
2023/01/19 11:28:23;;;;;;;13.07;2.95;;;;;;;-144.87;100.00;61487.56;5025838;28;20028;-77